sensor_id;sensor_type;location;lat;lon;timestamp;P1;durP1;ratioP1;P2;durP2;ratioP2
6117;SDS011;3089;48.202;11.510;2024-01-11T00:00:43;44.00;;;13.33;;
6117;SDS011;3089;48.202;11.510;2024-01-11T00:03:11;47.57;;;15.93;;
6117;SDS011;3089;48.202;11.510;2024-01-11T00:05:39;44.80;;;14.20;;
6117;SDS011;3089;48.202;11.510;2024-01-11T00:08:09;48.17;;;14.63;;
6117;SDS011;3089;48.202;11.510;2024-01-11T00:10:38;48.80;;;16.00;;
6117;SDS011;3089;48.202;11.510;2024-01-11T00:13:06;43.40;;;14.43;;
6117;SDS011;3089;48.202;11.510;2024-01-11T00:15:34;43.10;;;13.50;;
6117;SDS011;3089;48.202;11.510;2024-01-11T00:18:03;44.27;;;14.03;;
6117;SDS011;3089;48.202;11.510;2024-01-11T00:20:32;45.60;;;14.97;;
6117;SDS011;3089;48.202;11.510;2024-01-11T00:23:01;32.90;;;12.27;;
6117;SDS011;3089;48.202;11.510;2024-01-11T00:25:30;41.03;;;15.40;;
6117;SDS011;3089;48.202;11.510;2024-01-11T00:27:58;37.30;;;14.80;;
6117;SDS011;3089;48.202;11.510;2024-01-11T00:30:28;41.73;;;13.63;;
6117;SDS011;3089;48.202;11.510;2024-01-11T00:32:56;44.73;;;12.90;;
6117;SDS011;3089;48.202;11.510;2024-01-11T00:35:24;36.83;;;12.90;;
6117;SDS011;3089;48.202;11.510;2024-01-11T00:37:52;38.73;;;13.63;;
6117;SDS011;3089;48.202;11.510;2024-01-11T00:40:20;37.73;;;14.10;;
6117;SDS011;3089;48.202;11.510;2024-01-11T00:42:50;44.43;;;13.57;;
6117;SDS011;3089;48.202;11.510;2024-01-11T00:45:18;43.87;;;14.30;;
6117;SDS011;3089;48.202;11.510;2024-01-11T00:47:46;32.20;;;13.13;;
6117;SDS011;3089;48.202;11.510;2024-01-11T00:50:14;47.13;;;14.63;;
6117;SDS011;3089;48.202;11.510;2024-01-11T00:52:42;37.20;;;12.90;;
6117;SDS011;3089;48.202;11.510;2024-01-11T00:55:10;40.07;;;13.60;;
6117;SDS011;3089;48.202;11.510;2024-01-11T00:57:38;31.80;;;12.53;;
6117;SDS011;3089;48.202;11.510;2024-01-11T01:00:09;38.23;;;13.77;;
6117;SDS011;3089;48.202;11.510;2024-01-11T01:02:40;48.33;;;14.23;;
6117;SDS011;3089;48.202;11.510;2024-01-11T01:05:08;39.20;;;12.60;;
6117;SDS011;3089;48.202;11.510;2024-01-11T01:07:36;39.03;;;12.53;;
6117;SDS011;3089;48.202;11.510;2024-01-11T01:10:05;52.93;;;15.23;;
6117;SDS011;3089;48.202;11.510;2024-01-11T01:12:34;35.70;;;15.50;;
6117;SDS011;3089;48.202;11.510;2024-01-11T01:15:02;49.17;;;14.57;;
6117;SDS011;3089;48.202;11.510;2024-01-11T01:17:32;43.77;;;13.37;;
6117;SDS011;3089;48.202;11.510;2024-01-11T01:20:01;44.30;;;13.20;;
6117;SDS011;3089;48.202;11.510;2024-01-11T01:22:29;37.20;;;13.13;;
6117;SDS011;3089;48.202;11.510;2024-01-11T01:24:57;45.37;;;15.93;;
6117;SDS011;3089;48.202;11.510;2024-01-11T01:27:25;36.73;;;11.23;;
6117;SDS011;3089;48.202;11.510;2024-01-11T01:29:54;46.10;;;14.10;;
6117;SDS011;3089;48.202;11.510;2024-01-11T01:32:22;41.73;;;10.93;;
6117;SDS011;3089;48.202;11.510;2024-01-11T01:34:52;47.40;;;14.30;;
6117;SDS011;3089;48.202;11.510;2024-01-11T01:37:20;41.30;;;13.20;;
6117;SDS011;3089;48.202;11.510;2024-01-11T01:39:48;37.77;;;15.90;;
6117;SDS011;3089;48.202;11.510;2024-01-11T01:42:16;46.17;;;13.90;;
6117;SDS011;3089;48.202;11.510;2024-01-11T01:44:44;35.57;;;14.63;;
6117;SDS011;3089;48.202;11.510;2024-01-11T01:47:12;42.70;;;13.93;;
6117;SDS011;3089;48.202;11.510;2024-01-11T01:49:40;45.03;;;15.33;;
6117;SDS011;3089;48.202;11.510;2024-01-11T01:52:12;37.83;;;13.97;;
6117;SDS011;3089;48.202;11.510;2024-01-11T01:54:41;31.10;;;11.70;;
6117;SDS011;3089;48.202;11.510;2024-01-11T01:57:10;34.30;;;13.30;;
6117;SDS011;3089;48.202;11.510;2024-01-11T01:59:40;37.43;;;12.97;;
6117;SDS011;3089;48.202;11.510;2024-01-11T02:02:09;32.60;;;9.70;;
6117;SDS011;3089;48.202;11.510;2024-01-11T02:04:38;35.63;;;13.47;;
6117;SDS011;3089;48.202;11.510;2024-01-11T02:07:06;38.50;;;11.87;;
6117;SDS011;3089;48.202;11.510;2024-01-11T02:09:35;46.60;;;13.60;;
6117;SDS011;3089;48.202;11.510;2024-01-11T02:12:05;40.27;;;15.27;;
6117;SDS011;3089;48.202;11.510;2024-01-11T02:14:37;44.23;;;13.40;;
6117;SDS011;3089;48.202;11.510;2024-01-11T02:17:05;38.43;;;14.50;;
6117;SDS011;3089;48.202;11.510;2024-01-11T02:19:33;35.33;;;13.60;;
6117;SDS011;3089;48.202;11.510;2024-01-11T02:22:02;40.97;;;13.70;;
6117;SDS011;3089;48.202;11.510;2024-01-11T02:24:39;39.60;;;12.50;;
6117;SDS011;3089;48.202;11.510;2024-01-11T02:27:07;42.77;;;13.07;;
6117;SDS011;3089;48.202;11.510;2024-01-11T02:29:37;40.43;;;13.10;;
6117;SDS011;3089;48.202;11.510;2024-01-11T02:32:05;38.53;;;12.90;;
6117;SDS011;3089;48.202;11.510;2024-01-11T02:34:34;44.00;;;13.77;;
6117;SDS011;3089;48.202;11.510;2024-01-11T02:37:04;41.30;;;11.93;;
6117;SDS011;3089;48.202;11.510;2024-01-11T02:39:35;40.97;;;15.77;;
6117;SDS011;3089;48.202;11.510;2024-01-11T02:42:05;33.70;;;12.90;;
6117;SDS011;3089;48.202;11.510;2024-01-11T02:44:33;48.10;;;13.90;;
6117;SDS011;3089;48.202;11.510;2024-01-11T02:47:03;41.40;;;13.93;;
6117;SDS011;3089;48.202;11.510;2024-01-11T02:49:31;36.43;;;12.87;;
6117;SDS011;3089;48.202;11.510;2024-01-11T02:51:59;37.90;;;13.97;;
6117;SDS011;3089;48.202;11.510;2024-01-11T02:54:27;37.30;;;13.33;;
6117;SDS011;3089;48.202;11.510;2024-01-11T02:56:55;37.53;;;14.00;;
6117;SDS011;3089;48.202;11.510;2024-01-11T02:59:25;34.83;;;12.60;;
6117;SDS011;3089;48.202;11.510;2024-01-11T03:01:53;41.90;;;12.40;;
6117;SDS011;3089;48.202;11.510;2024-01-11T03:04:21;38.27;;;12.80;;
6117;SDS011;3089;48.202;11.510;2024-01-11T03:06:49;33.67;;;11.80;;
6117;SDS011;3089;48.202;11.510;2024-01-11T03:09:17;36.10;;;12.00;;
6117;SDS011;3089;48.202;11.510;2024-01-11T03:11:45;32.50;;;13.60;;
6117;SDS011;3089;48.202;11.510;2024-01-11T03:14:14;43.40;;;16.07;;
6117;SDS011;3089;48.202;11.510;2024-01-11T03:16:43;39.17;;;13.20;;
6117;SDS011;3089;48.202;11.510;2024-01-11T03:19:11;41.30;;;12.33;;
6117;SDS011;3089;48.202;11.510;2024-01-11T03:21:40;35.87;;;12.13;;
6117;SDS011;3089;48.202;11.510;2024-01-11T03:24:09;32.13;;;12.03;;
6117;SDS011;3089;48.202;11.510;2024-01-11T03:26:37;35.20;;;12.80;;
6117;SDS011;3089;48.202;11.510;2024-01-11T03:29:06;39.27;;;13.20;;
6117;SDS011;3089;48.202;11.510;2024-01-11T03:31:34;36.90;;;14.33;;
6117;SDS011;3089;48.202;11.510;2024-01-11T03:34:05;35.43;;;12.37;;
6117;SDS011;3089;48.202;11.510;2024-01-11T03:36:33;40.77;;;13.53;;
6117;SDS011;3089;48.202;11.510;2024-01-11T03:39:02;38.63;;;13.67;;
6117;SDS011;3089;48.202;11.510;2024-01-11T03:41:30;34.43;;;10.43;;
6117;SDS011;3089;48.202;11.510;2024-01-11T03:43:59;33.90;;;11.17;;
6117;SDS011;3089;48.202;11.510;2024-01-11T03:46:30;39.53;;;11.80;;
6117;SDS011;3089;48.202;11.510;2024-01-11T03:49:01;44.40;;;12.27;;
6117;SDS011;3089;48.202;11.510;2024-01-11T03:51:30;24.37;;;10.87;;
6117;SDS011;3089;48.202;11.510;2024-01-11T03:53:58;32.27;;;11.47;;
6117;SDS011;3089;48.202;11.510;2024-01-11T03:56:27;32.20;;;12.00;;
6117;SDS011;3089;48.202;11.510;2024-01-11T03:58:55;31.23;;;10.50;;
6117;SDS011;3089;48.202;11.510;2024-01-11T04:01:23;30.93;;;11.27;;
6117;SDS011;3089;48.202;11.510;2024-01-11T04:03:51;28.97;;;10.87;;
6117;SDS011;3089;48.202;11.510;2024-01-11T04:06:19;32.00;;;11.93;;
6117;SDS011;3089;48.202;11.510;2024-01-11T04:08:50;34.17;;;11.67;;
6117;SDS011;3089;48.202;11.510;2024-01-11T04:11:18;35.97;;;14.63;;
6117;SDS011;3089;48.202;11.510;2024-01-11T04:13:46;38.43;;;11.33;;
6117;SDS011;3089;48.202;11.510;2024-01-11T04:16:15;46.23;;;13.33;;
6117;SDS011;3089;48.202;11.510;2024-01-11T04:18:43;36.97;;;12.17;;
6117;SDS011;3089;48.202;11.510;2024-01-11T04:21:19;42.77;;;14.03;;
6117;SDS011;3089;48.202;11.510;2024-01-11T04:23:50;41.87;;;14.30;;
6117;SDS011;3089;48.202;11.510;2024-01-11T04:26:18;38.53;;;13.00;;
6117;SDS011;3089;48.202;11.510;2024-01-11T04:28:46;47.80;;;15.73;;
6117;SDS011;3089;48.202;11.510;2024-01-11T04:31:15;37.50;;;14.47;;
6117;SDS011;3089;48.202;11.510;2024-01-11T04:33:44;42.47;;;13.93;;
6117;SDS011;3089;48.202;11.510;2024-01-11T04:36:13;47.47;;;16.13;;
6117;SDS011;3089;48.202;11.510;2024-01-11T04:38:41;40.47;;;13.90;;
6117;SDS011;3089;48.202;11.510;2024-01-11T04:41:13;35.57;;;12.77;;
6117;SDS011;3089;48.202;11.510;2024-01-11T04:43:42;50.67;;;13.23;;
6117;SDS011;3089;48.202;11.510;2024-01-11T04:46:15;49.50;;;15.53;;
6117;SDS011;3089;48.202;11.510;2024-01-11T04:48:44;42.37;;;15.83;;
6117;SDS011;3089;48.202;11.510;2024-01-11T04:51:13;42.17;;;14.23;;
6117;SDS011;3089;48.202;11.510;2024-01-11T04:53:42;42.87;;;14.27;;
6117;SDS011;3089;48.202;11.510;2024-01-11T04:56:11;38.47;;;12.70;;
6117;SDS011;3089;48.202;11.510;2024-01-11T04:58:42;51.70;;;14.53;;
6117;SDS011;3089;48.202;11.510;2024-01-11T05:01:11;40.67;;;13.00;;
6117;SDS011;3089;48.202;11.510;2024-01-11T05:03:40;38.30;;;14.37;;
6117;SDS011;3089;48.202;11.510;2024-01-11T05:06:08;45.70;;;14.57;;
6117;SDS011;3089;48.202;11.510;2024-01-11T05:08:42;49.73;;;15.70;;
6117;SDS011;3089;48.202;11.510;2024-01-11T05:11:16;36.50;;;12.40;;
6117;SDS011;3089;48.202;11.510;2024-01-11T05:13:44;39.80;;;13.87;;
6117;SDS011;3089;48.202;11.510;2024-01-11T05:16:18;40.20;;;12.70;;
6117;SDS011;3089;48.202;11.510;2024-01-11T05:18:47;34.47;;;13.67;;
6117;SDS011;3089;48.202;11.510;2024-01-11T05:21:15;50.80;;;14.73;;
6117;SDS011;3089;48.202;11.510;2024-01-11T05:23:43;48.87;;;13.87;;
6117;SDS011;3089;48.202;11.510;2024-01-11T05:26:12;46.43;;;16.33;;
6117;SDS011;3089;48.202;11.510;2024-01-11T05:28:44;42.30;;;13.37;;
6117;SDS011;3089;48.202;11.510;2024-01-11T05:31:13;56.93;;;15.20;;
6117;SDS011;3089;48.202;11.510;2024-01-11T05:33:43;39.57;;;14.63;;
6117;SDS011;3089;48.202;11.510;2024-01-11T05:36:11;44.57;;;15.10;;
6117;SDS011;3089;48.202;11.510;2024-01-11T05:38:39;37.13;;;12.97;;
6117;SDS011;3089;48.202;11.510;2024-01-11T05:41:08;35.97;;;14.00;;
6117;SDS011;3089;48.202;11.510;2024-01-11T05:43:37;48.00;;;14.90;;
6117;SDS011;3089;48.202;11.510;2024-01-11T05:46:06;40.90;;;14.37;;
6117;SDS011;3089;48.202;11.510;2024-01-11T05:48:34;44.50;;;14.17;;
6117;SDS011;3089;48.202;11.510;2024-01-11T05:51:03;34.40;;;12.93;;
6117;SDS011;3089;48.202;11.510;2024-01-11T05:53:31;32.57;;;12.43;;
6117;SDS011;3089;48.202;11.510;2024-01-11T05:56:02;39.77;;;13.57;;
6117;SDS011;3089;48.202;11.510;2024-01-11T05:58:35;32.97;;;12.03;;
6117;SDS011;3089;48.202;11.510;2024-01-11T06:01:04;46.97;;;15.23;;
6117;SDS011;3089;48.202;11.510;2024-01-11T06:03:34;49.23;;;14.50;;
6117;SDS011;3089;48.202;11.510;2024-01-11T06:06:02;43.60;;;12.80;;
6117;SDS011;3089;48.202;11.510;2024-01-11T06:08:31;43.40;;;13.57;;
6117;SDS011;3089;48.202;11.510;2024-01-11T06:10:59;45.97;;;12.87;;
6117;SDS011;3089;48.202;11.510;2024-01-11T06:13:28;38.57;;;14.87;;
6117;SDS011;3089;48.202;11.510;2024-01-11T06:15:56;43.13;;;13.50;;
6117;SDS011;3089;48.202;11.510;2024-01-11T06:18:24;44.80;;;14.40;;
6117;SDS011;3089;48.202;11.510;2024-01-11T06:20:53;51.50;;;15.90;;
6117;SDS011;3089;48.202;11.510;2024-01-11T06:23:22;44.10;;;13.03;;
6117;SDS011;3089;48.202;11.510;2024-01-11T06:25:51;43.63;;;15.10;;
6117;SDS011;3089;48.202;11.510;2024-01-11T06:28:19;39.33;;;13.83;;
6117;SDS011;3089;48.202;11.510;2024-01-11T06:30:47;39.67;;;12.87;;
6117;SDS011;3089;48.202;11.510;2024-01-11T06:33:15;47.57;;;14.00;;
6117;SDS011;3089;48.202;11.510;2024-01-11T06:35:44;34.67;;;12.90;;
6117;SDS011;3089;48.202;11.510;2024-01-11T06:38:13;48.30;;;15.83;;
6117;SDS011;3089;48.202;11.510;2024-01-11T06:40:42;27.60;;;10.37;;
6117;SDS011;3089;48.202;11.510;2024-01-11T06:43:10;44.27;;;15.30;;
6117;SDS011;3089;48.202;11.510;2024-01-11T06:45:38;42.10;;;14.57;;
6117;SDS011;3089;48.202;11.510;2024-01-11T06:48:08;40.37;;;12.40;;
6117;SDS011;3089;48.202;11.510;2024-01-11T06:50:37;45.00;;;12.87;;
6117;SDS011;3089;48.202;11.510;2024-01-11T06:53:05;39.97;;;15.03;;
6117;SDS011;3089;48.202;11.510;2024-01-11T06:55:35;32.27;;;11.90;;
6117;SDS011;3089;48.202;11.510;2024-01-11T06:58:03;42.57;;;14.00;;
6117;SDS011;3089;48.202;11.510;2024-01-11T07:00:31;62.03;;;14.60;;
6117;SDS011;3089;48.202;11.510;2024-01-11T07:02:59;37.87;;;13.80;;
6117;SDS011;3089;48.202;11.510;2024-01-11T07:05:27;44.43;;;14.37;;
6117;SDS011;3089;48.202;11.510;2024-01-11T07:07:55;58.47;;;13.50;;
6117;SDS011;3089;48.202;11.510;2024-01-11T07:10:23;38.17;;;12.23;;
6117;SDS011;3089;48.202;11.510;2024-01-11T07:12:53;42.27;;;13.50;;
6117;SDS011;3089;48.202;11.510;2024-01-11T07:15:21;36.07;;;12.37;;
6117;SDS011;3089;48.202;11.510;2024-01-11T07:17:50;50.07;;;14.27;;
6117;SDS011;3089;48.202;11.510;2024-01-11T07:20:19;39.17;;;13.27;;
6117;SDS011;3089;48.202;11.510;2024-01-11T07:22:47;34.37;;;11.70;;
6117;SDS011;3089;48.202;11.510;2024-01-11T07:25:15;44.03;;;14.87;;
6117;SDS011;3089;48.202;11.510;2024-01-11T07:27:44;44.33;;;12.57;;
6117;SDS011;3089;48.202;11.510;2024-01-11T07:30:14;53.20;;;13.70;;
6117;SDS011;3089;48.202;11.510;2024-01-11T07:32:42;39.97;;;12.87;;
6117;SDS011;3089;48.202;11.510;2024-01-11T07:35:10;46.07;;;16.33;;
6117;SDS011;3089;48.202;11.510;2024-01-11T07:37:44;44.73;;;14.40;;
6117;SDS011;3089;48.202;11.510;2024-01-11T07:40:12;43.57;;;15.30;;
6117;SDS011;3089;48.202;11.510;2024-01-11T07:42:40;40.30;;;13.87;;
6117;SDS011;3089;48.202;11.510;2024-01-11T07:45:09;34.80;;;13.70;;
6117;SDS011;3089;48.202;11.510;2024-01-11T07:47:39;40.80;;;14.33;;
6117;SDS011;3089;48.202;11.510;2024-01-11T07:50:07;48.13;;;15.70;;
6117;SDS011;3089;48.202;11.510;2024-01-11T07:52:37;53.23;;;15.37;;
6117;SDS011;3089;48.202;11.510;2024-01-11T07:55:08;52.17;;;14.33;;
6117;SDS011;3089;48.202;11.510;2024-01-11T07:57:39;55.00;;;15.07;;
6117;SDS011;3089;48.202;11.510;2024-01-11T08:00:08;45.47;;;15.20;;
6117;SDS011;3089;48.202;11.510;2024-01-11T08:02:36;46.83;;;14.70;;
6117;SDS011;3089;48.202;11.510;2024-01-11T08:05:06;44.57;;;14.73;;
6117;SDS011;3089;48.202;11.510;2024-01-11T08:07:35;43.40;;;14.30;;
6117;SDS011;3089;48.202;11.510;2024-01-11T08:10:03;49.43;;;14.23;;
6117;SDS011;3089;48.202;11.510;2024-01-11T08:12:33;40.27;;;13.80;;
6117;SDS011;3089;48.202;11.510;2024-01-11T08:15:01;45.43;;;13.77;;
6117;SDS011;3089;48.202;11.510;2024-01-11T08:17:29;43.03;;;15.50;;
6117;SDS011;3089;48.202;11.510;2024-01-11T08:19:59;49.07;;;15.93;;
6117;SDS011;3089;48.202;11.510;2024-01-11T08:22:27;51.27;;;15.30;;
6117;SDS011;3089;48.202;11.510;2024-01-11T08:24:59;43.27;;;15.20;;
6117;SDS011;3089;48.202;11.510;2024-01-11T08:27:28;55.70;;;17.50;;
6117;SDS011;3089;48.202;11.510;2024-01-11T08:29:56;47.30;;;14.37;;
6117;SDS011;3089;48.202;11.510;2024-01-11T08:32:24;44.70;;;17.83;;
6117;SDS011;3089;48.202;11.510;2024-01-11T08:34:59;51.57;;;13.10;;
6117;SDS011;3089;48.202;11.510;2024-01-11T08:37:27;52.10;;;16.03;;
6117;SDS011;3089;48.202;11.510;2024-01-11T08:39:55;37.13;;;11.00;;
6117;SDS011;3089;48.202;11.510;2024-01-11T08:42:23;46.93;;;11.33;;
6117;SDS011;3089;48.202;11.510;2024-01-11T08:44:51;47.40;;;17.87;;
6117;SDS011;3089;48.202;11.510;2024-01-11T08:47:19;38.17;;;12.63;;
6117;SDS011;3089;48.202;11.510;2024-01-11T08:49:48;49.47;;;15.10;;
6117;SDS011;3089;48.202;11.510;2024-01-11T08:52:17;47.60;;;15.23;;
6117;SDS011;3089;48.202;11.510;2024-01-11T08:54:46;43.67;;;13.97;;
6117;SDS011;3089;48.202;11.510;2024-01-11T08:57:15;47.30;;;15.00;;
6117;SDS011;3089;48.202;11.510;2024-01-11T08:59:43;54.23;;;16.50;;
6117;SDS011;3089;48.202;11.510;2024-01-11T09:02:12;35.80;;;13.10;;
6117;SDS011;3089;48.202;11.510;2024-01-11T09:04:45;35.47;;;11.30;;
6117;SDS011;3089;48.202;11.510;2024-01-11T09:07:14;36.40;;;12.17;;
6117;SDS011;3089;48.202;11.510;2024-01-11T09:09:44;33.37;;;10.90;;
6117;SDS011;3089;48.202;11.510;2024-01-11T09:12:22;38.20;;;14.50;;
6117;SDS011;3089;48.202;11.510;2024-01-11T09:14:50;39.60;;;14.10;;
6117;SDS011;3089;48.202;11.510;2024-01-11T09:17:18;42.53;;;14.83;;
6117;SDS011;3089;48.202;11.510;2024-01-11T09:19:48;46.33;;;16.73;;
6117;SDS011;3089;48.202;11.510;2024-01-11T09:22:16;41.40;;;14.53;;
6117;SDS011;3089;48.202;11.510;2024-01-11T09:24:45;47.13;;;15.30;;
6117;SDS011;3089;48.202;11.510;2024-01-11T09:27:13;47.70;;;15.70;;
6117;SDS011;3089;48.202;11.510;2024-01-11T09:29:44;41.13;;;15.10;;
6117;SDS011;3089;48.202;11.510;2024-01-11T09:32:13;44.77;;;15.90;;
6117;SDS011;3089;48.202;11.510;2024-01-11T09:34:41;38.70;;;14.03;;
6117;SDS011;3089;48.202;11.510;2024-01-11T09:37:11;47.90;;;17.23;;
6117;SDS011;3089;48.202;11.510;2024-01-11T09:39:40;51.40;;;17.30;;
6117;SDS011;3089;48.202;11.510;2024-01-11T09:42:10;51.63;;;17.63;;
6117;SDS011;3089;48.202;11.510;2024-01-11T09:44:39;49.97;;;18.67;;
6117;SDS011;3089;48.202;11.510;2024-01-11T09:47:10;51.10;;;16.10;;
6117;SDS011;3089;48.202;11.510;2024-01-11T09:49:42;45.20;;;15.87;;
6117;SDS011;3089;48.202;11.510;2024-01-11T09:52:12;47.13;;;16.53;;
6117;SDS011;3089;48.202;11.510;2024-01-11T09:54:43;43.43;;;15.00;;
6117;SDS011;3089;48.202;11.510;2024-01-11T09:57:13;42.93;;;15.40;;
6117;SDS011;3089;48.202;11.510;2024-01-11T09:59:46;37.23;;;13.97;;
6117;SDS011;3089;48.202;11.510;2024-01-11T10:02:17;41.27;;;14.90;;
6117;SDS011;3089;48.202;11.510;2024-01-11T10:04:46;48.43;;;16.97;;
6117;SDS011;3089;48.202;11.510;2024-01-11T10:07:14;48.07;;;14.43;;
6117;SDS011;3089;48.202;11.510;2024-01-11T10:09:45;33.33;;;12.90;;
6117;SDS011;3089;48.202;11.510;2024-01-11T10:12:14;49.10;;;15.27;;
6117;SDS011;3089;48.202;11.510;2024-01-11T10:14:42;52.47;;;15.60;;
6117;SDS011;3089;48.202;11.510;2024-01-11T10:17:10;33.83;;;12.97;;
6117;SDS011;3089;48.202;11.510;2024-01-11T10:19:46;51.30;;;12.20;;
6117;SDS011;3089;48.202;11.510;2024-01-11T10:22:14;32.07;;;12.83;;
6117;SDS011;3089;48.202;11.510;2024-01-11T10:24:43;36.60;;;13.33;;
6117;SDS011;3089;48.202;11.510;2024-01-11T10:27:11;40.17;;;14.97;;
6117;SDS011;3089;48.202;11.510;2024-01-11T10:29:41;39.70;;;15.10;;
6117;SDS011;3089;48.202;11.510;2024-01-11T10:32:11;32.83;;;12.77;;
6117;SDS011;3089;48.202;11.510;2024-01-11T10:34:39;30.13;;;12.20;;
6117;SDS011;3089;48.202;11.510;2024-01-11T10:37:08;31.67;;;11.60;;
6117;SDS011;3089;48.202;11.510;2024-01-11T10:39:37;44.67;;;13.57;;
6117;SDS011;3089;48.202;11.510;2024-01-11T10:42:06;29.77;;;13.90;;
6117;SDS011;3089;48.202;11.510;2024-01-11T10:44:36;42.47;;;13.53;;
6117;SDS011;3089;48.202;11.510;2024-01-11T10:47:10;47.80;;;14.63;;
6117;SDS011;3089;48.202;11.510;2024-01-11T10:49:39;39.40;;;13.47;;
6117;SDS011;3089;48.202;11.510;2024-01-11T10:52:09;41.33;;;16.20;;
6117;SDS011;3089;48.202;11.510;2024-01-11T10:54:40;39.13;;;14.87;;
6117;SDS011;3089;48.202;11.510;2024-01-11T10:57:09;43.70;;;15.33;;
6117;SDS011;3089;48.202;11.510;2024-01-11T10:59:40;35.13;;;12.80;;
6117;SDS011;3089;48.202;11.510;2024-01-11T11:02:10;32.83;;;13.40;;
6117;SDS011;3089;48.202;11.510;2024-01-11T11:04:42;42.80;;;13.67;;
6117;SDS011;3089;48.202;11.510;2024-01-11T11:07:12;41.17;;;14.10;;
6117;SDS011;3089;48.202;11.510;2024-01-11T11:09:44;42.97;;;14.40;;
6117;SDS011;3089;48.202;11.510;2024-01-11T11:12:13;47.60;;;16.00;;
6117;SDS011;3089;48.202;11.510;2024-01-11T11:14:45;44.23;;;15.87;;
6117;SDS011;3089;48.202;11.510;2024-01-11T11:17:15;49.20;;;17.10;;
6117;SDS011;3089;48.202;11.510;2024-01-11T11:19:43;49.87;;;16.80;;
6117;SDS011;3089;48.202;11.510;2024-01-11T11:22:12;52.53;;;16.27;;
6117;SDS011;3089;48.202;11.510;2024-01-11T11:24:42;46.50;;;15.90;;
6117;SDS011;3089;48.202;11.510;2024-01-11T11:27:13;36.03;;;14.67;;
6117;SDS011;3089;48.202;11.510;2024-01-11T11:29:41;44.23;;;15.87;;
6117;SDS011;3089;48.202;11.510;2024-01-11T11:32:16;57.60;;;18.50;;
6117;SDS011;3089;48.202;11.510;2024-01-11T11:34:44;47.57;;;17.70;;
6117;SDS011;3089;48.202;11.510;2024-01-11T11:37:17;37.97;;;16.30;;
6117;SDS011;3089;48.202;11.510;2024-01-11T11:39:50;48.80;;;16.17;;
6117;SDS011;3089;48.202;11.510;2024-01-11T11:42:18;47.30;;;18.60;;
6117;SDS011;3089;48.202;11.510;2024-01-11T11:44:52;51.40;;;19.60;;
6117;SDS011;3089;48.202;11.510;2024-01-11T11:47:20;49.80;;;17.07;;
6117;SDS011;3089;48.202;11.510;2024-01-11T11:49:56;57.37;;;18.73;;
6117;SDS011;3089;48.202;11.510;2024-01-11T11:52:26;43.10;;;17.23;;
6117;SDS011;3089;48.202;11.510;2024-01-11T11:54:55;52.90;;;17.10;;
6117;SDS011;3089;48.202;11.510;2024-01-11T11:57:24;45.67;;;16.53;;
6117;SDS011;3089;48.202;11.510;2024-01-11T11:59:55;49.10;;;16.60;;
6117;SDS011;3089;48.202;11.510;2024-01-11T12:02:24;50.47;;;18.90;;
6117;SDS011;3089;48.202;11.510;2024-01-11T12:04:53;44.27;;;15.93;;
6117;SDS011;3089;48.202;11.510;2024-01-11T12:07:22;46.80;;;18.83;;
6117;SDS011;3089;48.202;11.510;2024-01-11T12:09:51;56.63;;;18.70;;
6117;SDS011;3089;48.202;11.510;2024-01-11T12:12:19;55.23;;;17.17;;
6117;SDS011;3089;48.202;11.510;2024-01-11T12:14:48;46.83;;;17.10;;
6117;SDS011;3089;48.202;11.510;2024-01-11T12:17:18;58.90;;;20.73;;
6117;SDS011;3089;48.202;11.510;2024-01-11T12:19:46;45.40;;;16.40;;
6117;SDS011;3089;48.202;11.510;2024-01-11T12:22:14;37.60;;;14.47;;
6117;SDS011;3089;48.202;11.510;2024-01-11T12:24:42;43.10;;;14.60;;
6117;SDS011;3089;48.202;11.510;2024-01-11T12:27:11;43.37;;;17.27;;
6117;SDS011;3089;48.202;11.510;2024-01-11T12:29:39;51.53;;;15.47;;
6117;SDS011;3089;48.202;11.510;2024-01-11T12:32:22;56.17;;;19.20;;
6117;SDS011;3089;48.202;11.510;2024-01-11T12:34:50;51.00;;;12.50;;
6117;SDS011;3089;48.202;11.510;2024-01-11T12:37:20;40.80;;;16.53;;
6117;SDS011;3089;48.202;11.510;2024-01-11T12:39:48;45.43;;;16.20;;
6117;SDS011;3089;48.202;11.510;2024-01-11T12:42:16;46.83;;;17.20;;
6117;SDS011;3089;48.202;11.510;2024-01-11T12:44:44;36.93;;;15.50;;
6117;SDS011;3089;48.202;11.510;2024-01-11T12:47:19;47.03;;;16.27;;
6117;SDS011;3089;48.202;11.510;2024-01-11T12:49:52;41.33;;;15.30;;
6117;SDS011;3089;48.202;11.510;2024-01-11T12:52:20;48.10;;;15.43;;
6117;SDS011;3089;48.202;11.510;2024-01-11T12:54:51;52.20;;;15.43;;
6117;SDS011;3089;48.202;11.510;2024-01-11T12:57:23;44.33;;;13.63;;
6117;SDS011;3089;48.202;11.510;2024-01-11T12:59:52;47.27;;;19.23;;
6117;SDS011;3089;48.202;11.510;2024-01-11T13:02:20;50.30;;;16.90;;
6117;SDS011;3089;48.202;11.510;2024-01-11T13:04:50;35.17;;;14.47;;
6117;SDS011;3089;48.202;11.510;2024-01-11T13:07:19;46.90;;;16.67;;
6117;SDS011;3089;48.202;11.510;2024-01-11T13:09:49;46.17;;;15.93;;
6117;SDS011;3089;48.202;11.510;2024-01-11T13:12:17;62.37;;;18.90;;
6117;SDS011;3089;48.202;11.510;2024-01-11T13:14:47;57.93;;;19.00;;
6117;SDS011;3089;48.202;11.510;2024-01-11T13:17:17;52.00;;;17.20;;
6117;SDS011;3089;48.202;11.510;2024-01-11T13:19:46;43.40;;;16.57;;
6117;SDS011;3089;48.202;11.510;2024-01-11T13:22:16;58.90;;;19.27;;
6117;SDS011;3089;48.202;11.510;2024-01-11T13:24:44;39.20;;;15.10;;
6117;SDS011;3089;48.202;11.510;2024-01-11T13:27:12;47.37;;;16.17;;
6117;SDS011;3089;48.202;11.510;2024-01-11T13:29:41;44.70;;;16.70;;
6117;SDS011;3089;48.202;11.510;2024-01-11T13:32:09;45.40;;;15.33;;
6117;SDS011;3089;48.202;11.510;2024-01-11T13:34:37;47.37;;;16.77;;
6117;SDS011;3089;48.202;11.510;2024-01-11T13:37:06;54.40;;;16.03;;
6117;SDS011;3089;48.202;11.510;2024-01-11T13:39:35;56.50;;;17.47;;
6117;SDS011;3089;48.202;11.510;2024-01-11T13:42:03;47.53;;;17.93;;
6117;SDS011;3089;48.202;11.510;2024-01-11T13:44:35;61.27;;;24.10;;
6117;SDS011;3089;48.202;11.510;2024-01-11T13:47:04;60.13;;;21.73;;
6117;SDS011;3089;48.202;11.510;2024-01-11T13:49:32;68.10;;;26.48;;
6117;SDS011;3089;48.202;11.510;2024-01-11T13:52:01;53.20;;;18.07;;
6117;SDS011;3089;48.202;11.510;2024-01-11T13:54:30;67.40;;;25.20;;
6117;SDS011;3089;48.202;11.510;2024-01-11T13:57:00;57.03;;;20.80;;
6117;SDS011;3089;48.202;11.510;2024-01-11T13:59:29;46.63;;;18.10;;
6117;SDS011;3089;48.202;11.510;2024-01-11T14:01:57;51.63;;;19.90;;
6117;SDS011;3089;48.202;11.510;2024-01-11T14:04:25;51.07;;;20.37;;
6117;SDS011;3089;48.202;11.510;2024-01-11T14:06:53;49.47;;;17.17;;
6117;SDS011;3089;48.202;11.510;2024-01-11T14:09:21;47.80;;;16.63;;
6117;SDS011;3089;48.202;11.510;2024-01-11T14:11:49;50.57;;;19.07;;
6117;SDS011;3089;48.202;11.510;2024-01-11T14:14:19;60.50;;;25.58;;
6117;SDS011;3089;48.202;11.510;2024-01-11T14:16:47;61.37;;;19.77;;
6117;SDS011;3089;48.202;11.510;2024-01-11T14:19:16;52.07;;;19.83;;
6117;SDS011;3089;48.202;11.510;2024-01-11T14:21:44;42.57;;;15.97;;
6117;SDS011;3089;48.202;11.510;2024-01-11T14:24:12;61.40;;;19.30;;
6117;SDS011;3089;48.202;11.510;2024-01-11T14:26:48;52.27;;;19.77;;
6117;SDS011;3089;48.202;11.510;2024-01-11T14:29:16;44.23;;;16.67;;
6117;SDS011;3089;48.202;11.510;2024-01-11T14:31:46;52.33;;;17.97;;
6117;SDS011;3089;48.202;11.510;2024-01-11T14:34:14;48.63;;;18.20;;
6117;SDS011;3089;48.202;11.510;2024-01-11T14:36:42;50.40;;;19.30;;
6117;SDS011;3089;48.202;11.510;2024-01-11T14:39:11;58.20;;;18.67;;
6117;SDS011;3089;48.202;11.510;2024-01-11T14:41:40;40.90;;;15.83;;
6117;SDS011;3089;48.202;11.510;2024-01-11T14:44:09;43.13;;;17.43;;